Terminal Aerodrome Forecast
Issued by NWS

Home | Current Version | Previous Version | Graphics & Text | Print | Product List | Glossary On
Versions: 1 2 3 4 5 6 7 8 9 10 11 12 13 14
465
FTUS42 KMHX 072320
TAFOAJ
TAF
KOAJ 072320Z 0800/0824 34018G30KT 6SM -RA SCT020 BKN040
      TEMPO 0800/0802 3SM RAPL BKN020
     FM080300 32014G24KT 6SM -RA BKN060
     FM080500 32010G18KT P6SM SCT060
     FM081000 28007KT P6SM SKC
      AMD LTD TO CLD VIS AND WIND=

USA.gov is the U.S. government's official web portal to all federal, state and local government web resources and services.